SKU331 SCDA-SCEL
Flight info
| Callsign | SKU331 |
|---|---|
| Flight time | 1h 52m |
| Altitude | 37000 |
| Route | ENLUS UQ803 SIMOK SIMOK7B |
| Aircraft | A21N/M-SDE2E3FGHIRWXY/LB1 |
Departure
| Time | 2026-04-26 21:53 |
|---|---|
| Airport | Diego Aracena International Airport (SCDA) |
Arrival
| Time | 2026-04-26 23:45 |
|---|---|
| Airport | Comodoro Arturo Merino Benítez International Airport (SCEL) |
| Time | Latitude | Longitude | Altitude | Speed | Heading |
|---|---|---|---|---|---|
| 2026-04-26 21:38 | -20.54717 | -70.17921 | 180 ft | 0 kts | 93° |
| 2026-04-26 21:40 | -20.54717 | -70.17925 | 180 ft | 3 kts | 93° |
| 2026-04-26 21:41 | -20.54715 | -70.17951 | 180 ft | 3 kts | 95° |
| 2026-04-26 21:41 | -20.54714 | -70.17977 | 180 ft | 3 kts | 90° |
| 2026-04-26 21:41 | -20.54714 | -70.18003 | 180 ft | 3 kts | 86° |
| 2026-04-26 21:41 | -20.54717 | -70.18028 | 180 ft | 3 kts | 81° |
| 2026-04-26 21:42 | -20.54719 | -70.18040 | 180 ft | 1 kts | 80° |
| 2026-04-26 21:42 | -20.54719 | -70.18041 | 180 ft | 0 kts | 80° |
| 2026-04-26 21:47 | -20.54717 | -70.18037 | 180 ft | 2 kts | 60° |
| 2026-04-26 21:47 | -20.54696 | -70.18023 | 180 ft | 5 kts | 22° |
| 2026-04-26 21:47 | -20.54652 | -70.18014 | 180 ft | 8 kts | 3° |
| 2026-04-26 21:47 | -20.54592 | -70.18020 | 180 ft | 10 kts | 345° |
| 2026-04-26 21:48 | -20.54518 | -70.18016 | 180 ft | 12 kts | 15° |
| 2026-04-26 21:48 | -20.54427 | -70.17998 | 180 ft | 14 kts | 6° |
| 2026-04-26 21:48 | -20.54323 | -70.17993 | 180 ft | 16 kts | 2° |
| 2026-04-26 21:48 | -20.54205 | -70.17987 | 180 ft | 18 kts | 0° |
| 2026-04-26 21:49 | -20.54075 | -70.17982 | 180 ft | 19 kts | 3° |
| 2026-04-26 21:49 | -20.53934 | -70.17975 | 180 ft | 21 kts | 2° |
| 2026-04-26 21:49 | -20.53782 | -70.17967 | 180 ft | 23 kts | 3° |
| 2026-04-26 21:49 | -20.53620 | -70.17957 | 180 ft | 24 kts | 2° |
| 2026-04-26 21:50 | -20.53447 | -70.17950 | 180 ft | 26 kts | 2° |
| 2026-04-26 21:50 | -20.53283 | -70.17940 | 180 ft | 18 kts | 2° |
| 2026-04-26 21:50 | -20.53157 | -70.17934 | 180 ft | 19 kts | 2° |
| 2026-04-26 21:50 | -20.53018 | -70.17926 | 179 ft | 21 kts | 3° |
| 2026-04-26 21:51 | -20.52886 | -70.17918 | 180 ft | 6 kts | 3° |
| 2026-04-26 21:51 | -20.52839 | -70.17921 | 180 ft | 8 kts | 334° |
| 2026-04-26 21:51 | -20.52812 | -70.17980 | 180 ft | 10 kts | 283° |
| 2026-04-26 21:51 | -20.52799 | -70.18062 | 180 ft | 12 kts | 253° |
| 2026-04-26 21:52 | -20.52861 | -70.18090 | 180 ft | 0 kts | 181° |
| 2026-04-26 21:52 | -20.53147 | -70.18105 | 180 ft | 94 kts | 183° |
| 2026-04-26 21:52 | -20.54122 | -70.18159 | 261 ft | 172 kts | 184° |
| 2026-04-26 21:53 | -20.55360 | -70.18228 | 1153 ft | 183 kts | 184° |
| 2026-04-26 21:53 | -20.56716 | -70.18310 | 1949 ft | 205 kts | 184° |
| 2026-04-26 21:53 | -20.58206 | -70.18393 | 2662 ft | 225 kts | 184° |
| 2026-04-26 21:53 | -20.59873 | -70.18483 | 3199 ft | 252 kts | 183° |
| 2026-04-26 21:54 | -20.61657 | -70.18579 | 3962 ft | 265 kts | 183° |
| 2026-04-26 21:54 | -20.63524 | -70.18680 | 4893 ft | 272 kts | 184° |
| 2026-04-26 21:54 | -20.65436 | -70.18783 | 5758 ft | 277 kts | 183° |
| 2026-04-26 21:54 | -20.67383 | -70.18886 | 6595 ft | 282 kts | 181° |
| 2026-04-26 21:55 | -20.69361 | -70.18942 | 7389 ft | 286 kts | 181° |
| 2026-04-26 21:55 | -20.71364 | -70.18988 | 8208 ft | 290 kts | 181° |
| 2026-04-26 21:55 | -20.73400 | -70.19037 | 9065 ft | 294 kts | 181° |
| 2026-04-26 21:55 | -20.75455 | -70.19089 | 9899 ft | 298 kts | 181° |
| 2026-04-26 21:56 | -20.77575 | -70.19144 | 10433 ft | 313 kts | 182° |
| 2026-04-26 21:56 | -20.79829 | -70.19204 | 10747 ft | 335 kts | 182° |
| 2026-04-26 21:56 | -20.82234 | -70.19267 | 11027 ft | 355 kts | 182° |
| 2026-04-26 21:56 | -20.84773 | -70.19334 | 11287 ft | 375 kts | 182° |
| 2026-04-26 21:57 | -20.87442 | -70.19404 | 11543 ft | 392 kts | 182° |
| 2026-04-26 21:57 | -20.90162 | -70.19476 | 12021 ft | 399 kts | 182° |
| 2026-04-26 21:57 | -20.92950 | -70.19549 | 12624 ft | 402 kts | 182° |
| 2026-04-26 21:57 | -20.95761 | -70.19625 | 13227 ft | 405 kts | 182° |
| 2026-04-26 21:58 | -20.98589 | -70.19700 | 13821 ft | 407 kts | 182° |
| 2026-04-26 21:58 | -21.01429 | -70.19775 | 14341 ft | 410 kts | 182° |
| 2026-04-26 21:58 | -21.04290 | -70.19852 | 14850 ft | 412 kts | 182° |
| 2026-04-26 21:58 | -21.07158 | -70.19928 | 15384 ft | 413 kts | 182° |
| 2026-04-26 21:59 | -21.10037 | -70.20005 | 15887 ft | 415 kts | 182° |
| 2026-04-26 21:59 | -21.12925 | -70.20081 | 16362 ft | 417 kts | 182° |
| 2026-04-26 21:59 | -21.15840 | -70.20159 | 16861 ft | 419 kts | 181° |
| 2026-04-26 21:59 | -21.18764 | -70.20238 | 17343 ft | 421 kts | 181° |
| 2026-04-26 22:00 | -21.21702 | -70.20316 | 17818 ft | 423 kts | 181° |
| 2026-04-26 22:00 | -21.24651 | -70.20394 | 18290 ft | 425 kts | 181° |
| 2026-04-26 22:00 | -21.27580 | -70.20472 | 18709 ft | 427 kts | 182° |
| 2026-04-26 22:00 | -21.30560 | -70.20552 | 19113 ft | 430 kts | 182° |
| 2026-04-26 22:01 | -21.33567 | -70.20633 | 19504 ft | 433 kts | 182° |
| 2026-04-26 22:01 | -21.36591 | -70.20713 | 19895 ft | 436 kts | 182° |
| 2026-04-26 22:01 | -21.39640 | -70.20794 | 20291 ft | 440 kts | 182° |
| 2026-04-26 22:01 | -21.42714 | -70.20876 | 20692 ft | 443 kts | 183° |
| 2026-04-26 22:02 | -21.45812 | -70.20959 | 21106 ft | 447 kts | 183° |
| 2026-04-26 22:02 | -21.48935 | -70.21044 | 21539 ft | 450 kts | 183° |
| 2026-04-26 22:02 | -21.52085 | -70.21128 | 21967 ft | 454 kts | 183° |
| 2026-04-26 22:02 | -21.55256 | -70.21212 | 22399 ft | 458 kts | 184° |
| 2026-04-26 22:03 | -21.58459 | -70.21299 | 22864 ft | 462 kts | 184° |
| 2026-04-26 22:03 | -21.61640 | -70.21385 | 23277 ft | 465 kts | 184° |
| 2026-04-26 22:03 | -21.64893 | -70.21472 | 23668 ft | 469 kts | 184° |
| 2026-04-26 22:03 | -21.68165 | -70.21560 | 23994 ft | 472 kts | 184° |
| 2026-04-26 22:04 | -21.71458 | -70.21649 | 24329 ft | 474 kts | 184° |
| 2026-04-26 22:04 | -21.74764 | -70.21737 | 24666 ft | 477 kts | 184° |
| 2026-04-26 22:04 | -21.78090 | -70.21827 | 24990 ft | 479 kts | 184° |
| 2026-04-26 22:04 | -21.81428 | -70.21916 | 25311 ft | 481 kts | 184° |
| 2026-04-26 22:05 | -21.84781 | -70.22006 | 25654 ft | 482 kts | 184° |
| 2026-04-26 22:05 | -21.88136 | -70.22103 | 26093 ft | 481 kts | 185° |
| 2026-04-26 22:05 | -21.91446 | -70.22454 | 26565 ft | 476 kts | 191° |
| 2026-04-26 22:05 | -21.94715 | -70.22964 | 27024 ft | 474 kts | 192° |
| 2026-04-26 22:06 | -21.97982 | -70.23488 | 27462 ft | 473 kts | 192° |
| 2026-04-26 22:06 | -22.01244 | -70.24007 | 27905 ft | 473 kts | 192° |
| 2026-04-26 22:06 | -22.04497 | -70.24520 | 28341 ft | 472 kts | 192° |
| 2026-04-26 22:06 | -22.07743 | -70.25031 | 28788 ft | 471 kts | 192° |
| 2026-04-26 22:07 | -22.10945 | -70.25538 | 29248 ft | 470 kts | 192° |
| 2026-04-26 22:07 | -22.14186 | -70.26050 | 29699 ft | 469 kts | 192° |
| 2026-04-26 22:07 | -22.17415 | -70.26561 | 30136 ft | 468 kts | 193° |
| 2026-04-26 22:07 | -22.20643 | -70.27066 | 30545 ft | 466 kts | 193° |
| 2026-04-26 22:08 | -22.23811 | -70.27562 | 30995 ft | 464 kts | 193° |
| 2026-04-26 22:08 | -22.27002 | -70.28064 | 31402 ft | 462 kts | 193° |
| 2026-04-26 22:08 | -22.30185 | -70.28566 | 31802 ft | 461 kts | 193° |
| 2026-04-26 22:08 | -22.33359 | -70.29068 | 32197 ft | 460 kts | 194° |
| 2026-04-26 22:09 | -22.36529 | -70.29564 | 32601 ft | 459 kts | 194° |
| 2026-04-26 22:09 | -22.39688 | -70.30052 | 32993 ft | 458 kts | 194° |
| 2026-04-26 22:09 | -22.42842 | -70.30544 | 33379 ft | 457 kts | 194° |
| 2026-04-26 22:09 | -22.45942 | -70.31034 | 33734 ft | 456 kts | 194° |
| 2026-04-26 22:10 | -22.49084 | -70.31531 | 34081 ft | 455 kts | 194° |
| 2026-04-26 22:10 | -22.52220 | -70.32026 | 34398 ft | 454 kts | 194° |
| 2026-04-26 22:10 | -22.55345 | -70.32521 | 34697 ft | 453 kts | 194° |
| 2026-04-26 22:10 | -22.58475 | -70.33017 | 34971 ft | 453 kts | 194° |
| 2026-04-26 22:11 | -22.61594 | -70.33513 | 35241 ft | 452 kts | 194° |
| 2026-04-26 22:11 | -22.64669 | -70.33999 | 35497 ft | 452 kts | 194° |
| 2026-04-26 22:11 | -22.67781 | -70.34493 | 35740 ft | 452 kts | 194° |
| 2026-04-26 22:11 | -22.70892 | -70.34986 | 35984 ft | 451 kts | 194° |
| 2026-04-26 22:12 | -22.74006 | -70.35480 | 36224 ft | 451 kts | 194° |
| 2026-04-26 22:12 | -22.77122 | -70.35973 | 36462 ft | 450 kts | 194° |
| 2026-04-26 22:12 | -22.80223 | -70.36466 | 36689 ft | 450 kts | 194° |
| 2026-04-26 22:12 | -22.83331 | -70.36959 | 36936 ft | 449 kts | 195° |
| 2026-04-26 22:13 | -22.86391 | -70.37446 | 37051 ft | 450 kts | 195° |
| 2026-04-26 22:13 | -22.89522 | -70.37801 | 37050 ft | 455 kts | 189° |
| 2026-04-26 22:13 | -22.95887 | -70.37869 | 37032 ft | 456 kts | 187° |
| 2026-04-26 22:14 | -23.02238 | -70.37901 | 37025 ft | 456 kts | 187° |
| 2026-04-26 22:14 | -23.08575 | -70.37947 | 37025 ft | 456 kts | 187° |
| 2026-04-26 22:15 | -23.14937 | -70.37995 | 37036 ft | 456 kts | 187° |
| 2026-04-26 22:15 | -23.21260 | -70.38044 | 37036 ft | 456 kts | 187° |
| 2026-04-26 22:16 | -23.27622 | -70.38092 | 37043 ft | 456 kts | 187° |
| 2026-04-26 22:16 | -23.33973 | -70.38140 | 37048 ft | 456 kts | 187° |
| 2026-04-26 22:17 | -23.40334 | -70.38188 | 37051 ft | 456 kts | 187° |
| 2026-04-26 22:17 | -23.46644 | -70.38236 | 37066 ft | 456 kts | 188° |
| 2026-04-26 22:18 | -23.52986 | -70.38285 | 37054 ft | 455 kts | 188° |
| 2026-04-26 22:18 | -23.59336 | -70.38334 | 37046 ft | 455 kts | 188° |
| 2026-04-26 22:19 | -23.65691 | -70.38382 | 37040 ft | 456 kts | 188° |
| 2026-04-26 22:19 | -23.72032 | -70.38432 | 37031 ft | 455 kts | 188° |
| 2026-04-26 22:20 | -23.77271 | -70.38472 | 37030 ft | 455 kts | 188° |
| 2026-04-26 22:20 | -23.84708 | -70.38328 | 37022 ft | 457 kts | 186° |
| 2026-04-26 22:21 | -23.91080 | -70.38115 | 37024 ft | 458 kts | 186° |
| 2026-04-26 22:21 | -23.97411 | -70.37904 | 37023 ft | 458 kts | 186° |
| 2026-04-26 22:22 | -24.03788 | -70.37691 | 37024 ft | 458 kts | 186° |
| 2026-04-26 22:22 | -24.10173 | -70.37479 | 37017 ft | 458 kts | 186° |
| 2026-04-26 22:23 | -24.16557 | -70.37266 | 37020 ft | 458 kts | 186° |
| 2026-04-26 22:23 | -24.22927 | -70.37054 | 37018 ft | 458 kts | 186° |
| 2026-04-26 22:24 | -24.29268 | -70.36842 | 37020 ft | 458 kts | 186° |
| 2026-04-26 22:24 | -24.35659 | -70.36629 | 37024 ft | 458 kts | 187° |
| 2026-04-26 22:25 | -24.42044 | -70.36415 | 37020 ft | 458 kts | 187° |
| 2026-04-26 22:25 | -24.48397 | -70.36203 | 37013 ft | 458 kts | 187° |
| 2026-04-26 22:26 | -24.54794 | -70.35988 | 37015 ft | 459 kts | 187° |
| 2026-04-26 22:26 | -24.61160 | -70.35774 | 37012 ft | 460 kts | 187° |
| 2026-04-26 22:27 | -24.67549 | -70.35559 | 37028 ft | 457 kts | 187° |
| 2026-04-26 22:27 | -24.73878 | -70.35347 | 37023 ft | 457 kts | 187° |
| 2026-04-26 22:28 | -24.80247 | -70.35132 | 37022 ft | 457 kts | 187° |
| 2026-04-26 22:28 | -24.86621 | -70.34919 | 37023 ft | 457 kts | 187° |
| 2026-04-26 22:29 | -24.93003 | -70.34707 | 37054 ft | 458 kts | 187° |
| 2026-04-26 22:29 | -24.98280 | -70.34528 | 37037 ft | 456 kts | 188° |
| 2026-04-26 22:30 | -25.05661 | -70.34280 | 37025 ft | 456 kts | 188° |
| 2026-04-26 22:30 | -25.10943 | -70.34103 | 37035 ft | 456 kts | 188° |
| 2026-04-26 22:31 | -25.17290 | -70.33889 | 37032 ft | 456 kts | 188° |
| 2026-04-26 22:31 | -25.24667 | -70.33641 | 37024 ft | 454 kts | 188° |
| 2026-04-26 22:32 | -25.29938 | -70.33463 | 37035 ft | 454 kts | 188° |
| 2026-04-26 22:32 | -25.36273 | -70.33248 | 37026 ft | 455 kts | 188° |
| 2026-04-26 22:33 | -25.45779 | -70.32928 | 37024 ft | 455 kts | 188° |
| 2026-04-26 22:34 | -25.52111 | -70.32713 | 37048 ft | 455 kts | 188° |
| 2026-04-26 22:34 | -25.58427 | -70.32499 | 37032 ft | 454 kts | 188° |
| 2026-04-26 22:35 | -25.64704 | -70.32288 | 37026 ft | 454 kts | 188° |
| 2026-04-26 22:35 | -25.71015 | -70.32072 | 37028 ft | 454 kts | 188° |
| 2026-04-26 22:36 | -25.77340 | -70.31858 | 37027 ft | 454 kts | 188° |
| 2026-04-26 22:36 | -25.83655 | -70.31643 | 37042 ft | 453 kts | 189° |
| 2026-04-26 22:37 | -25.89913 | -70.31428 | 37027 ft | 453 kts | 189° |
| 2026-04-26 22:37 | -25.96223 | -70.31215 | 37024 ft | 452 kts | 189° |
| 2026-04-26 22:38 | -26.02535 | -70.30999 | 37022 ft | 453 kts | 189° |
| 2026-04-26 22:38 | -26.08758 | -70.31015 | 37048 ft | 444 kts | 195° |
| 2026-04-26 22:39 | -26.14892 | -70.31575 | 37024 ft | 441 kts | 196° |
| 2026-04-26 22:39 | -26.21012 | -70.32147 | 37027 ft | 442 kts | 196° |
| 2026-04-26 22:40 | -26.27139 | -70.32712 | 37023 ft | 442 kts | 196° |
| 2026-04-26 22:40 | -26.33272 | -70.33278 | 37026 ft | 441 kts | 196° |
| 2026-04-26 22:41 | -26.39366 | -70.33836 | 37075 ft | 441 kts | 196° |
| 2026-04-26 22:41 | -26.45467 | -70.34398 | 37038 ft | 442 kts | 196° |
| 2026-04-26 22:42 | -26.51604 | -70.34965 | 37036 ft | 440 kts | 196° |
| 2026-04-26 22:42 | -26.57711 | -70.35526 | 37032 ft | 440 kts | 196° |
| 2026-04-26 22:43 | -26.63782 | -70.36088 | 37043 ft | 440 kts | 196° |
| 2026-04-26 22:43 | -26.69891 | -70.36650 | 37036 ft | 440 kts | 197° |
| 2026-04-26 22:44 | -26.76010 | -70.37218 | 37019 ft | 441 kts | 196° |
| 2026-04-26 22:44 | -26.82089 | -70.37782 | 37029 ft | 441 kts | 197° |
| 2026-04-26 22:45 | -26.88215 | -70.38347 | 37028 ft | 440 kts | 197° |
| 2026-04-26 22:45 | -26.94297 | -70.38912 | 37033 ft | 440 kts | 197° |
| 2026-04-26 22:46 | -27.00411 | -70.39483 | 37026 ft | 440 kts | 197° |
| 2026-04-26 22:46 | -27.06507 | -70.40051 | 37030 ft | 441 kts | 197° |
| 2026-04-26 22:47 | -27.12602 | -70.40622 | 37037 ft | 440 kts | 197° |
| 2026-04-26 22:47 | -27.18727 | -70.41195 | 37036 ft | 441 kts | 197° |
| 2026-04-26 22:48 | -27.24861 | -70.41769 | 37035 ft | 441 kts | 197° |
| 2026-04-26 22:48 | -27.30931 | -70.42334 | 37056 ft | 438 kts | 197° |
| 2026-04-26 22:49 | -27.37029 | -70.42908 | 37048 ft | 439 kts | 197° |
| 2026-04-26 22:49 | -27.43095 | -70.43479 | 37042 ft | 439 kts | 197° |
| 2026-04-26 22:50 | -27.49193 | -70.44052 | 37040 ft | 439 kts | 197° |
| 2026-04-26 22:50 | -27.55285 | -70.44622 | 37074 ft | 439 kts | 197° |
| 2026-04-26 22:51 | -27.61374 | -70.45196 | 37052 ft | 438 kts | 197° |
| 2026-04-26 22:51 | -27.67425 | -70.45767 | 37037 ft | 438 kts | 197° |
| 2026-04-26 22:52 | -27.73530 | -70.46346 | 37049 ft | 440 kts | 197° |
| 2026-04-26 22:52 | -27.79581 | -70.46914 | 37042 ft | 438 kts | 197° |
| 2026-04-26 22:53 | -27.85647 | -70.47488 | 37066 ft | 437 kts | 197° |
| 2026-04-26 22:53 | -27.91711 | -70.48062 | 37049 ft | 436 kts | 198° |
| 2026-04-26 22:54 | -27.97730 | -70.48636 | 37046 ft | 436 kts | 197° |
| 2026-04-26 22:54 | -28.03804 | -70.49212 | 37046 ft | 436 kts | 197° |
| 2026-04-26 22:55 | -28.09820 | -70.49781 | 37046 ft | 436 kts | 197° |
| 2026-04-26 22:55 | -28.15871 | -70.50357 | 37062 ft | 434 kts | 198° |
| 2026-04-26 22:56 | -28.21875 | -70.50931 | 37047 ft | 435 kts | 198° |
| 2026-04-26 22:56 | -28.27922 | -70.51507 | 37044 ft | 435 kts | 198° |
| 2026-04-26 22:57 | -28.33926 | -70.52079 | 37047 ft | 435 kts | 198° |
| 2026-04-26 22:57 | -28.39961 | -70.52657 | 37097 ft | 434 kts | 198° |
| 2026-04-26 22:58 | -28.45986 | -70.53230 | 37060 ft | 431 kts | 198° |
| 2026-04-26 22:58 | -28.51969 | -70.53804 | 37049 ft | 435 kts | 197° |
| 2026-04-26 22:59 | -28.58022 | -70.54366 | 37039 ft | 434 kts | 197° |
| 2026-04-26 22:59 | -28.64014 | -70.54926 | 37051 ft | 434 kts | 197° |
| 2026-04-26 23:00 | -28.70048 | -70.55492 | 37082 ft | 434 kts | 197° |
| 2026-04-26 23:00 | -28.76071 | -70.56060 | 37057 ft | 434 kts | 197° |
| 2026-04-26 23:01 | -28.82054 | -70.56619 | 37056 ft | 433 kts | 198° |
| 2026-04-26 23:01 | -28.88062 | -70.57188 | 37067 ft | 433 kts | 197° |
| 2026-04-26 23:02 | -28.94080 | -70.57763 | 37064 ft | 432 kts | 197° |
| 2026-04-26 23:02 | -29.00040 | -70.58340 | 37090 ft | 432 kts | 197° |
| 2026-04-26 23:03 | -29.06017 | -70.58915 | 37077 ft | 433 kts | 197° |
| 2026-04-26 23:03 | -29.12034 | -70.59492 | 37084 ft | 434 kts | 197° |
| 2026-04-26 23:04 | -29.18045 | -70.60072 | 37095 ft | 433 kts | 197° |
| 2026-04-26 23:04 | -29.24049 | -70.60653 | 37124 ft | 433 kts | 197° |
| 2026-04-26 23:05 | -29.30067 | -70.61236 | 37082 ft | 434 kts | 197° |
| 2026-04-26 23:05 | -29.36056 | -70.61816 | 37080 ft | 434 kts | 197° |
| 2026-04-26 23:06 | -29.42068 | -70.62396 | 37048 ft | 432 kts | 197° |
| 2026-04-26 23:06 | -29.48090 | -70.62989 | 37090 ft | 434 kts | 197° |
| 2026-04-26 23:07 | -29.54080 | -70.63574 | 37096 ft | 434 kts | 197° |
| 2026-04-26 23:07 | -29.60110 | -70.64163 | 37078 ft | 434 kts | 197° |
| 2026-04-26 23:08 | -29.66142 | -70.64753 | 37071 ft | 434 kts | 197° |
| 2026-04-26 23:08 | -29.72135 | -70.65349 | 37075 ft | 434 kts | 197° |
| 2026-04-26 23:09 | -29.78151 | -70.65954 | 37065 ft | 434 kts | 197° |
| 2026-04-26 23:09 | -29.84180 | -70.66553 | 37074 ft | 435 kts | 197° |
| 2026-04-26 23:10 | -29.90216 | -70.67143 | 37059 ft | 434 kts | 197° |
| 2026-04-26 23:10 | -29.96201 | -70.67730 | 37051 ft | 434 kts | 197° |
| 2026-04-26 23:11 | -30.02210 | -70.68327 | 37054 ft | 434 kts | 197° |
| 2026-04-26 23:11 | -30.08243 | -70.68923 | 37099 ft | 434 kts | 197° |
| 2026-04-26 23:12 | -30.14267 | -70.69513 | 37063 ft | 434 kts | 197° |
| 2026-04-26 23:12 | -30.20249 | -70.70088 | 37066 ft | 434 kts | 196° |
| 2026-04-26 23:13 | -30.26287 | -70.70677 | 37066 ft | 435 kts | 197° |
| 2026-04-26 23:13 | -30.32321 | -70.71273 | 37072 ft | 435 kts | 197° |
| 2026-04-26 23:14 | -30.38346 | -70.71870 | 37092 ft | 434 kts | 196° |
| 2026-04-26 23:14 | -30.44379 | -70.72469 | 37082 ft | 435 kts | 196° |
| 2026-04-26 23:15 | -30.50363 | -70.73065 | 37076 ft | 434 kts | 196° |
| 2026-04-26 23:15 | -30.56391 | -70.73664 | 37070 ft | 435 kts | 196° |
| 2026-04-26 23:16 | -30.62443 | -70.74264 | 37107 ft | 435 kts | 195° |
| 2026-04-26 23:16 | -30.68487 | -70.74845 | 37031 ft | 434 kts | 195° |
| 2026-04-26 23:17 | -30.74456 | -70.75423 | 37046 ft | 434 kts | 195° |
| 2026-04-26 23:17 | -30.80480 | -70.76009 | 37063 ft | 435 kts | 195° |
| 2026-04-26 23:18 | -30.86517 | -70.76608 | 37050 ft | 435 kts | 195° |
| 2026-04-26 23:18 | -30.92561 | -70.77193 | 37067 ft | 436 kts | 194° |
| 2026-04-26 23:19 | -30.98579 | -70.77778 | 37049 ft | 436 kts | 194° |
| 2026-04-26 23:19 | -31.04625 | -70.78361 | 37107 ft | 433 kts | 194° |
| 2026-04-26 23:20 | -31.09639 | -70.78854 | 37045 ft | 435 kts | 194° |
| 2026-04-26 23:20 | -31.16680 | -70.79541 | 37120 ft | 437 kts | 194° |
| 2026-04-26 23:21 | -31.21729 | -70.80033 | 37101 ft | 437 kts | 194° |
| 2026-04-26 23:21 | -31.28791 | -70.80726 | 37088 ft | 438 kts | 193° |
| 2026-04-26 23:22 | -31.33876 | -70.81223 | 37103 ft | 436 kts | 194° |
| 2026-04-26 23:22 | -31.39884 | -70.81816 | 37110 ft | 436 kts | 194° |
| 2026-04-26 23:23 | -31.45940 | -70.82415 | 37099 ft | 437 kts | 193° |
| 2026-04-26 23:23 | -31.51995 | -70.83012 | 37098 ft | 435 kts | 193° |
| 2026-04-26 23:24 | -31.57919 | -70.83593 | 36740 ft | 428 kts | 193° |
| 2026-04-26 23:24 | -31.60886 | -70.83888 | 36220 ft | 426 kts | 193° |
| 2026-04-26 23:24 | -31.63836 | -70.84181 | 35548 ft | 424 kts | 193° |
| 2026-04-26 23:24 | -31.66792 | -70.84475 | 34895 ft | 425 kts | 192° |
| 2026-04-26 23:25 | -31.69712 | -70.84767 | 34249 ft | 427 kts | 191° |
| 2026-04-26 23:25 | -31.72677 | -70.85062 | 33481 ft | 427 kts | 191° |
| 2026-04-26 23:25 | -31.75659 | -70.85278 | 32729 ft | 432 kts | 186° |
| 2026-04-26 23:25 | -31.78681 | -70.85212 | 31997 ft | 435 kts | 184° |
| 2026-04-26 23:26 | -31.81713 | -70.85103 | 31260 ft | 437 kts | 183° |
| 2026-04-26 23:26 | -31.84760 | -70.84989 | 30502 ft | 438 kts | 183° |
| 2026-04-26 23:26 | -31.87825 | -70.84876 | 29599 ft | 441 kts | 182° |
| 2026-04-26 23:26 | -31.90858 | -70.84767 | 28679 ft | 443 kts | 182° |
| 2026-04-26 23:27 | -31.93947 | -70.84657 | 27806 ft | 444 kts | 182° |
| 2026-04-26 23:27 | -31.97042 | -70.84546 | 26921 ft | 445 kts | 181° |
| 2026-04-26 23:27 | -32.00146 | -70.84434 | 26031 ft | 445 kts | 181° |
| 2026-04-26 23:27 | -32.03239 | -70.84321 | 25212 ft | 444 kts | 181° |
| 2026-04-26 23:28 | -32.06325 | -70.84210 | 24436 ft | 442 kts | 181° |
| 2026-04-26 23:28 | -32.09394 | -70.84100 | 23677 ft | 440 kts | 181° |
| 2026-04-26 23:28 | -32.12446 | -70.83992 | 22832 ft | 437 kts | 181° |
| 2026-04-26 23:28 | -32.15449 | -70.83886 | 22022 ft | 436 kts | 181° |
| 2026-04-26 23:29 | -32.18490 | -70.83776 | 21215 ft | 435 kts | 181° |
| 2026-04-26 23:29 | -32.21513 | -70.83667 | 20443 ft | 433 kts | 181° |
| 2026-04-26 23:29 | -32.24517 | -70.83559 | 19737 ft | 428 kts | 181° |
| 2026-04-26 23:29 | -32.27440 | -70.83454 | 19354 ft | 413 kts | 181° |
| 2026-04-26 23:30 | -32.30266 | -70.83352 | 19018 ft | 397 kts | 181° |
| 2026-04-26 23:30 | -32.32988 | -70.83253 | 18728 ft | 382 kts | 181° |
| 2026-04-26 23:30 | -32.35599 | -70.83159 | 18490 ft | 368 kts | 181° |
| 2026-04-26 23:30 | -32.38086 | -70.83069 | 18249 ft | 354 kts | 181° |
| 2026-04-26 23:31 | -32.40533 | -70.82983 | 17670 ft | 350 kts | 181° |
| 2026-04-26 23:31 | -32.42971 | -70.82898 | 17022 ft | 349 kts | 181° |
| 2026-04-26 23:31 | -32.45395 | -70.82812 | 16417 ft | 348 kts | 180° |
| 2026-04-26 23:31 | -32.47805 | -70.82726 | 15831 ft | 346 kts | 180° |
| 2026-04-26 23:32 | -32.50200 | -70.82639 | 15250 ft | 343 kts | 180° |
| 2026-04-26 23:32 | -32.52557 | -70.82555 | 14723 ft | 341 kts | 179° |
| 2026-04-26 23:32 | -32.54920 | -70.82470 | 14234 ft | 338 kts | 179° |
| 2026-04-26 23:32 | -32.57259 | -70.82385 | 13754 ft | 334 kts | 179° |
| 2026-04-26 23:33 | -32.59574 | -70.82302 | 13298 ft | 331 kts | 179° |
| 2026-04-26 23:33 | -32.61881 | -70.82220 | 12883 ft | 331 kts | 179° |
| 2026-04-26 23:33 | -32.64189 | -70.82136 | 12480 ft | 330 kts | 178° |
| 2026-04-26 23:33 | -32.66457 | -70.82053 | 12207 ft | 321 kts | 178° |
| 2026-04-26 23:34 | -32.68648 | -70.81973 | 12023 ft | 308 kts | 178° |
| 2026-04-26 23:34 | -32.70732 | -70.81897 | 11880 ft | 297 kts | 178° |
| 2026-04-26 23:34 | -32.72757 | -70.81824 | 11750 ft | 285 kts | 179° |
| 2026-04-26 23:34 | -32.74699 | -70.81753 | 11626 ft | 273 kts | 178° |
| 2026-04-26 23:35 | -32.76581 | -70.81686 | 11325 ft | 269 kts | 178° |
| 2026-04-26 23:35 | -32.78461 | -70.81618 | 10945 ft | 269 kts | 178° |
| 2026-04-26 23:35 | -32.80328 | -70.81550 | 10617 ft | 267 kts | 178° |
| 2026-04-26 23:35 | -32.82161 | -70.81483 | 10321 ft | 267 kts | 178° |
| 2026-04-26 23:36 | -32.84016 | -70.81416 | 10030 ft | 267 kts | 178° |
| 2026-04-26 23:36 | -32.85872 | -70.81348 | 9649 ft | 266 kts | 178° |
| 2026-04-26 23:36 | -32.87722 | -70.81281 | 9283 ft | 265 kts | 178° |
| 2026-04-26 23:36 | -32.89559 | -70.81214 | 8934 ft | 263 kts | 178° |
| 2026-04-26 23:37 | -32.91381 | -70.81152 | 8612 ft | 260 kts | 179° |
| 2026-04-26 23:37 | -32.93191 | -70.81290 | 8297 ft | 261 kts | 186° |
| 2026-04-26 23:37 | -32.94998 | -70.81561 | 8001 ft | 261 kts | 187° |
| 2026-04-26 23:37 | -32.96774 | -70.81834 | 7709 ft | 261 kts | 187° |
| 2026-04-26 23:38 | -32.98574 | -70.82109 | 7400 ft | 260 kts | 187° |
| 2026-04-26 23:38 | -33.00367 | -70.82355 | 7085 ft | 258 kts | 183° |
| 2026-04-26 23:38 | -33.02156 | -70.82339 | 6762 ft | 256 kts | 177° |
| 2026-04-26 23:38 | -33.03929 | -70.82234 | 6510 ft | 251 kts | 176° |
| 2026-04-26 23:39 | -33.05626 | -70.82075 | 6440 ft | 238 kts | 175° |
| 2026-04-26 23:39 | -33.07249 | -70.81963 | 6344 ft | 228 kts | 176° |
| 2026-04-26 23:39 | -33.08807 | -70.81875 | 6060 ft | 227 kts | 177° |
| 2026-04-26 23:39 | -33.10383 | -70.81791 | 5754 ft | 226 kts | 177° |
| 2026-04-26 23:40 | -33.11955 | -70.81709 | 5468 ft | 225 kts | 176° |
| 2026-04-26 23:40 | -33.13515 | -70.81626 | 5175 ft | 224 kts | 176° |
| 2026-04-26 23:40 | -33.15065 | -70.81544 | 4993 ft | 222 kts | 176° |
| 2026-04-26 23:40 | -33.16595 | -70.81464 | 4976 ft | 222 kts | 176° |
| 2026-04-26 23:41 | -33.18144 | -70.81382 | 4976 ft | 222 kts | 176° |
| 2026-04-26 23:41 | -33.19693 | -70.81300 | 4887 ft | 221 kts | 176° |
| 2026-04-26 23:41 | -33.21213 | -70.81220 | 4655 ft | 216 kts | 176° |
| 2026-04-26 23:41 | -33.22702 | -70.81141 | 4375 ft | 212 kts | 176° |
| 2026-04-26 23:42 | -33.24147 | -70.81064 | 4098 ft | 208 kts | 176° |
| 2026-04-26 23:42 | -33.26918 | -70.80917 | 3631 ft | 192 kts | 176° |
| 2026-04-26 23:42 | -33.28245 | -70.80847 | 3365 ft | 189 kts | 176° |
| 2026-04-26 23:43 | -33.29523 | -70.80779 | 3103 ft | 181 kts | 176° |
| 2026-04-26 23:43 | -33.30761 | -70.80713 | 2845 ft | 171 kts | 177° |
| 2026-04-26 23:43 | -33.31903 | -70.80652 | 2617 ft | 159 kts | 176° |
| 2026-04-26 23:43 | -33.32964 | -70.80596 | 2412 ft | 150 kts | 176° |
| 2026-04-26 23:44 | -33.34002 | -70.80541 | 2221 ft | 148 kts | 176° |
| 2026-04-26 23:44 | -33.34956 | -70.80491 | 2058 ft | 130 kts | 176° |
| 2026-04-26 23:44 | -33.35833 | -70.80444 | 1878 ft | 126 kts | 176° |
| 2026-04-26 23:44 | -33.36706 | -70.80398 | 1714 ft | 125 kts | 176° |
| 2026-04-26 23:45 | -33.37555 | -70.80357 | 1583 ft | 114 kts | 176° |
| 2026-04-26 23:45 | -33.38210 | -70.80317 | 1577 ft | 69 kts | 178° |
| 2026-04-26 23:45 | -33.38502 | -70.80303 | 1578 ft | 30 kts | 176° |
| 2026-04-26 23:45 | -33.38714 | -70.80287 | 1580 ft | 29 kts | 178° |
| 2026-04-26 23:46 | -33.38923 | -70.80283 | 1579 ft | 31 kts | 179° |
| 2026-04-26 23:46 | -33.39095 | -70.80273 | 1579 ft | 24 kts | 173° |
| 2026-04-26 23:46 | -33.39260 | -70.80234 | 1577 ft | 25 kts | 157° |
| 2026-04-26 23:46 | -33.39397 | -70.80151 | 1574 ft | 18 kts | 147° |
| 2026-04-26 23:47 | -33.39505 | -70.80062 | 1571 ft | 20 kts | 126° |
| 2026-04-26 23:47 | -33.39528 | -70.79899 | 1570 ft | 21 kts | 89° |
| 2026-04-26 23:47 | -33.39524 | -70.79717 | 1570 ft | 23 kts | 84° |
| 2026-04-26 23:47 | -33.39515 | -70.79517 | 1570 ft | 25 kts | 88° |
| 2026-04-26 23:48 | -33.39507 | -70.79326 | 1570 ft | 17 kts | 87° |
| 2026-04-26 23:48 | -33.39514 | -70.79226 | 1570 ft | 3 kts | 150° |
| 2026-04-26 23:48 | -33.39543 | -70.79221 | 1570 ft | 6 kts | 179° |
| 2026-04-26 23:48 | -33.39572 | -70.79219 | 1570 ft | 1 kts | 177° |
| 2026-04-26 23:49 | -33.39583 | -70.79219 | 1570 ft | 0 kts | 177° |